sensor_id;sensor_type;location;lat;lon;timestamp;P1;durP1;ratioP1;P2;durP2;ratioP2
21979;SDS011;11154;48.558;9.234;2022-09-20T00:01:21;4.18;;;2.22;;
21979;SDS011;11154;48.558;9.234;2022-09-20T00:03:24;3.85;;;2.10;;
21979;SDS011;11154;48.558;9.234;2022-09-20T00:05:26;4.03;;;2.00;;
21979;SDS011;11154;48.558;9.234;2022-09-20T00:07:27;5.85;;;2.08;;
21979;SDS011;11154;48.558;9.234;2022-09-20T00:09:29;3.92;;;2.30;;
21979;SDS011;11154;48.558;9.234;2022-09-20T00:11:32;5.53;;;2.28;;
21979;SDS011;11154;48.558;9.234;2022-09-20T00:13:35;7.88;;;2.78;;
21979;SDS011;11154;48.558;9.234;2022-09-20T00:15:43;4.60;;;2.22;;
21979;SDS011;11154;48.558;9.234;2022-09-20T00:17:46;5.53;;;2.40;;
21979;SDS011;11154;48.558;9.234;2022-09-20T00:19:48;8.15;;;2.22;;
21979;SDS011;11154;48.558;9.234;2022-09-20T00:21:49;3.75;;;2.20;;
21979;SDS011;11154;48.558;9.234;2022-09-20T00:23:51;6.57;;;2.40;;
21979;SDS011;11154;48.558;9.234;2022-09-20T00:25:54;5.70;;;2.10;;
21979;SDS011;11154;48.558;9.234;2022-09-20T00:27:57;5.13;;;2.10;;
21979;SDS011;11154;48.558;9.234;2022-09-20T00:29:59;7.25;;;2.30;;
21979;SDS011;11154;48.558;9.234;2022-09-20T00:32:02;5.07;;;2.10;;
21979;SDS011;11154;48.558;9.234;2022-09-20T00:34:04;4.72;;;2.38;;
21979;SDS011;11154;48.558;9.234;2022-09-20T00:36:23;5.50;;;2.17;;
21979;SDS011;11154;48.558;9.234;2022-09-20T00:38:26;4.63;;;2.08;;
21979;SDS011;11154;48.558;9.234;2022-09-20T00:40:28;4.85;;;2.22;;
21979;SDS011;11154;48.558;9.234;2022-09-20T00:42:30;7.88;;;2.22;;
21979;SDS011;11154;48.558;9.234;2022-09-20T00:46:56;5.72;;;2.00;;
21979;SDS011;11154;48.558;9.234;2022-09-20T00:49:02;4.45;;;2.17;;
21979;SDS011;11154;48.558;9.234;2022-09-20T00:51:08;5.43;;;2.50;;
21979;SDS011;11154;48.558;9.234;2022-09-20T00:53:17;3.35;;;1.98;;
21979;SDS011;11154;48.558;9.234;2022-09-20T00:55:23;4.18;;;1.90;;
21979;SDS011;11154;48.558;9.234;2022-09-20T00:57:25;2.50;;;1.58;;
21979;SDS011;11154;48.558;9.234;2022-09-20T00:59:35;7.53;;;2.08;;
21979;SDS011;11154;48.558;9.234;2022-09-20T01:01:40;4.35;;;1.88;;
21979;SDS011;11154;48.558;9.234;2022-09-20T01:03:43;4.45;;;1.85;;
21979;SDS011;11154;48.558;9.234;2022-09-20T01:05:47;2.78;;;1.77;;
21979;SDS011;11154;48.558;9.234;2022-09-20T01:07:51;2.78;;;1.75;;
21979;SDS011;11154;48.558;9.234;2022-09-20T01:09:53;4.10;;;2.10;;
21979;SDS011;11154;48.558;9.234;2022-09-20T01:11:55;3.40;;;1.80;;
21979;SDS011;11154;48.558;9.234;2022-09-20T01:13:58;4.72;;;2.13;;
21979;SDS011;11154;48.558;9.234;2022-09-20T01:16:00;3.50;;;1.92;;
21979;SDS011;11154;48.558;9.234;2022-09-20T01:18:04;3.90;;;1.83;;
21979;SDS011;11154;48.558;9.234;2022-09-20T01:20:12;2.58;;;1.75;;
21979;SDS011;11154;48.558;9.234;2022-09-20T01:22:20;5.65;;;2.20;;
21979;SDS011;11154;48.558;9.234;2022-09-20T01:24:26;3.22;;;1.83;;
21979;SDS011;11154;48.558;9.234;2022-09-20T01:26:37;3.05;;;1.90;;
21979;SDS011;11154;48.558;9.234;2022-09-20T01:28:48;4.90;;;2.00;;
21979;SDS011;11154;48.558;9.234;2022-09-20T01:30:59;4.38;;;1.70;;
21979;SDS011;11154;48.558;9.234;2022-09-20T01:33:08;3.97;;;2.10;;
21979;SDS011;11154;48.558;9.234;2022-09-20T01:35:18;7.20;;;2.00;;
21979;SDS011;11154;48.558;9.234;2022-09-20T01:37:23;3.88;;;1.83;;
21979;SDS011;11154;48.558;9.234;2022-09-20T01:39:29;4.05;;;1.75;;
21979;SDS011;11154;48.558;9.234;2022-09-20T01:43:45;3.78;;;1.70;;
21979;SDS011;11154;48.558;9.234;2022-09-20T01:45:53;3.97;;;2.10;;
21979;SDS011;11154;48.558;9.234;2022-09-20T01:47:57;3.35;;;2.00;;
21979;SDS011;11154;48.558;9.234;2022-09-20T01:50:11;4.30;;;2.00;;
21979;SDS011;11154;48.558;9.234;2022-09-20T01:52:32;3.92;;;1.90;;
21979;SDS011;11154;48.558;9.234;2022-09-20T01:54:59;3.80;;;1.50;;
21979;SDS011;11154;48.558;9.234;2022-09-20T02:00:09;5.03;;;1.95;;
21979;SDS011;11154;48.558;9.234;2022-09-20T02:02:24;4.53;;;1.98;;
21979;SDS011;11154;48.558;9.234;2022-09-20T02:07:26;2.55;;;1.70;;
21979;SDS011;11154;48.558;9.234;2022-09-20T02:10:01;5.13;;;2.25;;
21979;SDS011;11154;48.558;9.234;2022-09-20T02:12:30;6.28;;;1.77;;
21979;SDS011;11154;48.558;9.234;2022-09-20T02:14:45;4.25;;;1.67;;
21979;SDS011;11154;48.558;9.234;2022-09-20T02:16:55;5.25;;;2.17;;
21979;SDS011;11154;48.558;9.234;2022-09-20T02:19:05;3.95;;;1.90;;
21979;SDS011;11154;48.558;9.234;2022-09-20T02:21:23;4.30;;;1.65;;
21979;SDS011;11154;48.558;9.234;2022-09-20T02:23:39;3.80;;;1.52;;
21979;SDS011;11154;48.558;9.234;2022-09-20T02:25:56;4.35;;;1.83;;
21979;SDS011;11154;48.558;9.234;2022-09-20T02:28:09;4.90;;;1.60;;
21979;SDS011;11154;48.558;9.234;2022-09-20T02:30:26;3.58;;;1.77;;
21979;SDS011;11154;48.558;9.234;2022-09-20T02:32:43;5.38;;;2.10;;
21979;SDS011;11154;48.558;9.234;2022-09-20T02:37:30;3.75;;;1.80;;
21979;SDS011;11154;48.558;9.234;2022-09-20T02:39:44;3.05;;;1.70;;
21979;SDS011;11154;48.558;9.234;2022-09-20T02:41:58;7.45;;;2.00;;
21979;SDS011;11154;48.558;9.234;2022-09-20T02:44:12;4.30;;;1.98;;
21979;SDS011;11154;48.558;9.234;2022-09-20T02:46:22;4.78;;;2.15;;
21979;SDS011;11154;48.558;9.234;2022-09-20T02:48:33;4.53;;;2.00;;
21979;SDS011;11154;48.558;9.234;2022-09-20T02:50:44;4.70;;;1.83;;
21979;SDS011;11154;48.558;9.234;2022-09-20T02:55:06;3.65;;;1.77;;
21979;SDS011;11154;48.558;9.234;2022-09-20T02:57:16;2.95;;;1.65;;
21979;SDS011;11154;48.558;9.234;2022-09-20T02:59:25;4.87;;;1.80;;
21979;SDS011;11154;48.558;9.234;2022-09-20T03:01:36;4.18;;;1.60;;
21979;SDS011;11154;48.558;9.234;2022-09-20T03:03:48;3.33;;;1.80;;
21979;SDS011;11154;48.558;9.234;2022-09-20T03:08:10;3.13;;;1.88;;
21979;SDS011;11154;48.558;9.234;2022-09-20T03:10:24;3.50;;;1.83;;
21979;SDS011;11154;48.558;9.234;2022-09-20T03:12:34;1.95;;;1.40;;
21979;SDS011;11154;48.558;9.234;2022-09-20T03:14:52;6.68;;;2.10;;
21979;SDS011;11154;48.558;9.234;2022-09-20T03:17:09;4.50;;;1.88;;
21979;SDS011;11154;48.558;9.234;2022-09-20T03:19:23;3.03;;;1.60;;
21979;SDS011;11154;48.558;9.234;2022-09-20T03:21:37;4.93;;;1.98;;
21979;SDS011;11154;48.558;9.234;2022-09-20T03:23:53;4.38;;;1.77;;
21979;SDS011;11154;48.558;9.234;2022-09-20T03:26:06;3.45;;;1.52;;
21979;SDS011;11154;48.558;9.234;2022-09-20T03:28:33;5.97;;;1.67;;
21979;SDS011;11154;48.558;9.234;2022-09-20T03:30:45;3.65;;;2.00;;
21979;SDS011;11154;48.558;9.234;2022-09-20T03:33:01;5.47;;;3.40;;
21979;SDS011;11154;48.558;9.234;2022-09-20T03:35:18;9.77;;;3.97;;
21979;SDS011;11154;48.558;9.234;2022-09-20T03:37:40;5.72;;;3.03;;
21979;SDS011;11154;48.558;9.234;2022-09-20T03:42:29;4.32;;;1.70;;
21979;SDS011;11154;48.558;9.234;2022-09-20T03:44:39;6.85;;;1.70;;
21979;SDS011;11154;48.558;9.234;2022-09-20T03:46:55;5.05;;;1.90;;
21979;SDS011;11154;48.558;9.234;2022-09-20T03:49:18;3.15;;;1.60;;
21979;SDS011;11154;48.558;9.234;2022-09-20T03:51:44;7.40;;;2.17;;
21979;SDS011;11154;48.558;9.234;2022-09-20T03:59:19;4.60;;;1.85;;
21979;SDS011;11154;48.558;9.234;2022-09-20T04:01:47;3.47;;;1.67;;
21979;SDS011;11154;48.558;9.234;2022-09-20T04:04:06;2.53;;;1.63;;
21979;SDS011;11154;48.558;9.234;2022-09-20T04:06:19;5.18;;;1.88;;
21979;SDS011;11154;48.558;9.234;2022-09-20T04:08:42;3.33;;;2.03;;
21979;SDS011;11154;48.558;9.234;2022-09-20T04:11:02;3.78;;;1.60;;
21979;SDS011;11154;48.558;9.234;2022-09-20T04:13:24;5.00;;;2.05;;
21979;SDS011;11154;48.558;9.234;2022-09-20T04:15:36;4.07;;;1.40;;
21979;SDS011;11154;48.558;9.234;2022-09-20T04:17:46;3.80;;;1.50;;
21979;SDS011;11154;48.558;9.234;2022-09-20T04:19:57;2.15;;;1.65;;
21979;SDS011;11154;48.558;9.234;2022-09-20T04:22:03;4.00;;;1.73;;
21979;SDS011;11154;48.558;9.234;2022-09-20T04:24:09;6.13;;;1.77;;
21979;SDS011;11154;48.558;9.234;2022-09-20T04:26:23;3.47;;;1.70;;
21979;SDS011;11154;48.558;9.234;2022-09-20T04:28:29;3.92;;;1.55;;
21979;SDS011;11154;48.558;9.234;2022-09-20T04:30:37;3.85;;;1.63;;
21979;SDS011;11154;48.558;9.234;2022-09-20T04:32:43;5.43;;;2.42;;
21979;SDS011;11154;48.558;9.234;2022-09-20T04:34:53;4.78;;;2.00;;
21979;SDS011;11154;48.558;9.234;2022-09-20T04:37:23;5.03;;;1.58;;
21979;SDS011;11154;48.558;9.234;2022-09-20T04:39:36;3.13;;;1.52;;
21979;SDS011;11154;48.558;9.234;2022-09-20T04:44:32;4.07;;;1.92;;
21979;SDS011;11154;48.558;9.234;2022-09-20T04:49:48;4.43;;;1.70;;
21979;SDS011;11154;48.558;9.234;2022-09-20T04:57:57;4.38;;;1.77;;
21979;SDS011;11154;48.558;9.234;2022-09-20T05:00:19;4.95;;;1.95;;
21979;SDS011;11154;48.558;9.234;2022-09-20T05:02:38;2.15;;;1.50;;
21979;SDS011;11154;48.558;9.234;2022-09-20T05:05:12;5.93;;;1.42;;
21979;SDS011;11154;48.558;9.234;2022-09-20T05:13:15;3.50;;;1.45;;
21979;SDS011;11154;48.558;9.234;2022-09-20T05:15:34;2.92;;;1.52;;
21979;SDS011;11154;48.558;9.234;2022-09-20T05:17:47;2.42;;;1.67;;
21979;SDS011;11154;48.558;9.234;2022-09-20T05:20:04;2.23;;;1.53;;
21979;SDS011;11154;48.558;9.234;2022-09-20T05:22:34;2.88;;;1.73;;
21979;SDS011;11154;48.558;9.234;2022-09-20T05:25:00;5.70;;;2.60;;
21979;SDS011;11154;48.558;9.234;2022-09-20T05:27:24;3.30;;;1.88;;
21979;SDS011;11154;48.558;9.234;2022-09-20T05:29:42;4.32;;;1.73;;
21979;SDS011;11154;48.558;9.234;2022-09-20T05:31:52;3.72;;;1.90;;
21979;SDS011;11154;48.558;9.234;2022-09-20T05:34:03;5.45;;;1.92;;
21979;SDS011;11154;48.558;9.234;2022-09-20T05:36:18;2.42;;;1.63;;
21979;SDS011;11154;48.558;9.234;2022-09-20T05:38:33;4.60;;;1.95;;
21979;SDS011;11154;48.558;9.234;2022-09-20T05:40:47;3.90;;;2.13;;
21979;SDS011;11154;48.558;9.234;2022-09-20T05:43:06;3.90;;;1.92;;
21979;SDS011;11154;48.558;9.234;2022-09-20T05:45:21;3.50;;;1.83;;
21979;SDS011;11154;48.558;9.234;2022-09-20T05:47:35;3.88;;;1.98;;
21979;SDS011;11154;48.558;9.234;2022-09-20T05:49:47;5.85;;;2.03;;
21979;SDS011;11154;48.558;9.234;2022-09-20T05:52:04;4.57;;;2.00;;
21979;SDS011;11154;48.558;9.234;2022-09-20T05:54:32;2.10;;;1.77;;
21979;SDS011;11154;48.558;9.234;2022-09-20T05:56:59;5.18;;;2.05;;
21979;SDS011;11154;48.558;9.234;2022-09-20T05:59:21;4.20;;;2.10;;
21979;SDS011;11154;48.558;9.234;2022-09-20T06:01:32;6.18;;;1.80;;
21979;SDS011;11154;48.558;9.234;2022-09-20T06:03:38;5.45;;;1.98;;
21979;SDS011;11154;48.558;9.234;2022-09-20T06:05:45;5.93;;;1.88;;
21979;SDS011;11154;48.558;9.234;2022-09-20T06:08:00;4.35;;;2.20;;
21979;SDS011;11154;48.558;9.234;2022-09-20T06:10:21;5.10;;;1.98;;
21979;SDS011;11154;48.558;9.234;2022-09-20T06:12:37;6.13;;;1.75;;
21979;SDS011;11154;48.558;9.234;2022-09-20T06:14:53;4.53;;;2.35;;
21979;SDS011;11154;48.558;9.234;2022-09-20T06:17:06;3.90;;;2.00;;
21979;SDS011;11154;48.558;9.234;2022-09-20T06:19:18;6.80;;;2.25;;
21979;SDS011;11154;48.558;9.234;2022-09-20T06:21:28;5.67;;;2.00;;
21979;SDS011;11154;48.558;9.234;2022-09-20T06:23:41;5.80;;;2.05;;
21979;SDS011;11154;48.558;9.234;2022-09-20T06:25:43;6.07;;;1.90;;
21979;SDS011;11154;48.558;9.234;2022-09-20T06:27:53;4.30;;;1.98;;
21979;SDS011;11154;48.558;9.234;2022-09-20T06:29:57;4.28;;;1.95;;
21979;SDS011;11154;48.558;9.234;2022-09-20T06:32:01;3.80;;;1.60;;
21979;SDS011;11154;48.558;9.234;2022-09-20T06:34:06;5.30;;;2.20;;
21979;SDS011;11154;48.558;9.234;2022-09-20T06:36:11;4.93;;;1.88;;
21979;SDS011;11154;48.558;9.234;2022-09-20T06:38:37;4.82;;;1.77;;
21979;SDS011;11154;48.558;9.234;2022-09-20T06:41:07;4.15;;;1.75;;
21979;SDS011;11154;48.558;9.234;2022-09-20T06:43:28;4.78;;;1.80;;
21979;SDS011;11154;48.558;9.234;2022-09-20T06:45:31;4.95;;;1.90;;
21979;SDS011;11154;48.558;9.234;2022-09-20T06:47:32;7.57;;;2.55;;
21979;SDS011;11154;48.558;9.234;2022-09-20T06:49:35;3.97;;;2.10;;
21979;SDS011;11154;48.558;9.234;2022-09-20T06:51:38;2.63;;;1.63;;
21979;SDS011;11154;48.558;9.234;2022-09-20T06:53:42;6.63;;;2.05;;
21979;SDS011;11154;48.558;9.234;2022-09-20T06:55:44;3.92;;;1.88;;
21979;SDS011;11154;48.558;9.234;2022-09-20T06:57:47;5.55;;;1.95;;
21979;SDS011;11154;48.558;9.234;2022-09-20T06:59:50;5.10;;;2.28;;
21979;SDS011;11154;48.558;9.234;2022-09-20T07:01:52;3.83;;;2.13;;
21979;SDS011;11154;48.558;9.234;2022-09-20T07:03:54;3.47;;;1.77;;
21979;SDS011;11154;48.558;9.234;2022-09-20T07:05:57;3.28;;;1.70;;
21979;SDS011;11154;48.558;9.234;2022-09-20T07:07:59;6.05;;;1.92;;
21979;SDS011;11154;48.558;9.234;2022-09-20T07:10:01;3.55;;;1.90;;
21979;SDS011;11154;48.558;9.234;2022-09-20T07:12:03;3.78;;;1.75;;
21979;SDS011;11154;48.558;9.234;2022-09-20T07:14:06;6.40;;;2.55;;
21979;SDS011;11154;48.558;9.234;2022-09-20T07:16:09;6.50;;;2.28;;
21979;SDS011;11154;48.558;9.234;2022-09-20T07:18:12;6.53;;;2.28;;
21979;SDS011;11154;48.558;9.234;2022-09-20T07:20:14;7.25;;;2.17;;
21979;SDS011;11154;48.558;9.234;2022-09-20T07:22:17;5.15;;;1.92;;
21979;SDS011;11154;48.558;9.234;2022-09-20T07:24:19;7.50;;;3.65;;
21979;SDS011;11154;48.558;9.234;2022-09-20T07:26:22;6.95;;;2.33;;
21979;SDS011;11154;48.558;9.234;2022-09-20T07:28:25;4.95;;;2.08;;
21979;SDS011;11154;48.558;9.234;2022-09-20T07:30:27;3.75;;;1.75;;
21979;SDS011;11154;48.558;9.234;2022-09-20T07:32:29;4.15;;;1.98;;
21979;SDS011;11154;48.558;9.234;2022-09-20T07:34:30;5.22;;;2.05;;
21979;SDS011;11154;48.558;9.234;2022-09-20T07:36:32;5.50;;;1.92;;
21979;SDS011;11154;48.558;9.234;2022-09-20T07:38:35;4.13;;;1.90;;
21979;SDS011;11154;48.558;9.234;2022-09-20T07:40:36;2.33;;;1.67;;
21979;SDS011;11154;48.558;9.234;2022-09-20T07:42:38;4.22;;;2.00;;
21979;SDS011;11154;48.558;9.234;2022-09-20T07:44:40;6.40;;;2.03;;
21979;SDS011;11154;48.558;9.234;2022-09-20T07:46:42;6.30;;;2.30;;
21979;SDS011;11154;48.558;9.234;2022-09-20T07:48:44;6.22;;;2.30;;
21979;SDS011;11154;48.558;9.234;2022-09-20T07:50:49;4.72;;;2.05;;
21979;SDS011;11154;48.558;9.234;2022-09-20T07:52:51;5.13;;;2.05;;
21979;SDS011;11154;48.558;9.234;2022-09-20T07:54:57;5.88;;;2.13;;
21979;SDS011;11154;48.558;9.234;2022-09-20T07:56:59;5.88;;;2.20;;
21979;SDS011;11154;48.558;9.234;2022-09-20T07:59:01;4.40;;;2.17;;
21979;SDS011;11154;48.558;9.234;2022-09-20T08:01:03;6.05;;;2.30;;
21979;SDS011;11154;48.558;9.234;2022-09-20T08:03:07;5.10;;;2.13;;
21979;SDS011;11154;48.558;9.234;2022-09-20T08:05:09;3.80;;;1.90;;
21979;SDS011;11154;48.558;9.234;2022-09-20T08:07:10;4.30;;;2.10;;
21979;SDS011;11154;48.558;9.234;2022-09-20T08:09:12;4.55;;;2.08;;
21979;SDS011;11154;48.558;9.234;2022-09-20T08:11:17;5.60;;;1.88;;
21979;SDS011;11154;48.558;9.234;2022-09-20T08:13:20;4.45;;;2.10;;
21979;SDS011;11154;48.558;9.234;2022-09-20T08:15:22;5.95;;;2.17;;
21979;SDS011;11154;48.558;9.234;2022-09-20T08:17:24;4.00;;;2.20;;
21979;SDS011;11154;48.558;9.234;2022-09-20T08:19:26;5.45;;;2.50;;
21979;SDS011;11154;48.558;9.234;2022-09-20T08:21:30;6.72;;;2.33;;
21979;SDS011;11154;48.558;9.234;2022-09-20T08:23:33;5.57;;;2.40;;
21979;SDS011;11154;48.558;9.234;2022-09-20T08:25:35;4.28;;;2.28;;
21979;SDS011;11154;48.558;9.234;2022-09-20T08:27:38;4.13;;;2.20;;
21979;SDS011;11154;48.558;9.234;2022-09-20T08:29:40;6.28;;;2.38;;
21979;SDS011;11154;48.558;9.234;2022-09-20T08:31:42;7.07;;;2.50;;
21979;SDS011;11154;48.558;9.234;2022-09-20T08:33:45;3.50;;;2.15;;
21979;SDS011;11154;48.558;9.234;2022-09-20T08:35:49;6.82;;;2.63;;
21979;SDS011;11154;48.558;9.234;2022-09-20T08:37:53;6.47;;;2.15;;
21979;SDS011;11154;48.558;9.234;2022-09-20T08:39:55;5.57;;;2.45;;
21979;SDS011;11154;48.558;9.234;2022-09-20T08:42:00;4.25;;;2.78;;
21979;SDS011;11154;48.558;9.234;2022-09-20T08:44:13;7.35;;;3.30;;
21979;SDS011;11154;48.558;9.234;2022-09-20T08:46:19;4.07;;;2.60;;
21979;SDS011;11154;48.558;9.234;2022-09-20T08:48:26;5.65;;;2.80;;
21979;SDS011;11154;48.558;9.234;2022-09-20T08:50:31;5.97;;;2.63;;
21979;SDS011;11154;48.558;9.234;2022-09-20T08:52:34;6.10;;;2.88;;
21979;SDS011;11154;48.558;9.234;2022-09-20T08:54:38;7.93;;;3.22;;
21979;SDS011;11154;48.558;9.234;2022-09-20T08:56:42;6.95;;;2.95;;
21979;SDS011;11154;48.558;9.234;2022-09-20T08:58:45;7.05;;;2.92;;
21979;SDS011;11154;48.558;9.234;2022-09-20T09:00:49;6.13;;;2.78;;
21979;SDS011;11154;48.558;9.234;2022-09-20T09:02:51;9.15;;;2.60;;
21979;SDS011;11154;48.558;9.234;2022-09-20T09:04:55;6.05;;;2.50;;
21979;SDS011;11154;48.558;9.234;2022-09-20T09:06:57;7.82;;;2.30;;
21979;SDS011;11154;48.558;9.234;2022-09-20T09:08:59;10.32;;;2.85;;
21979;SDS011;11154;48.558;9.234;2022-09-20T09:11:01;4.03;;;2.35;;
21979;SDS011;11154;48.558;9.234;2022-09-20T09:13:09;6.85;;;2.15;;
21979;SDS011;11154;48.558;9.234;2022-09-20T09:15:20;5.03;;;2.28;;
21979;SDS011;11154;48.558;9.234;2022-09-20T09:17:30;4.85;;;2.15;;
21979;SDS011;11154;48.558;9.234;2022-09-20T09:19:41;8.13;;;2.75;;
21979;SDS011;11154;48.558;9.234;2022-09-20T09:21:44;7.97;;;1.98;;
21979;SDS011;11154;48.558;9.234;2022-09-20T09:23:49;6.97;;;2.17;;
21979;SDS011;11154;48.558;9.234;2022-09-20T09:25:53;7.05;;;2.00;;
21979;SDS011;11154;48.558;9.234;2022-09-20T09:27:56;6.22;;;2.30;;
21979;SDS011;11154;48.558;9.234;2022-09-20T09:29:59;4.93;;;1.73;;
21979;SDS011;11154;48.558;9.234;2022-09-20T09:32:18;8.00;;;2.17;;
21979;SDS011;11154;48.558;9.234;2022-09-20T09:34:25;7.88;;;2.22;;
21979;SDS011;11154;48.558;9.234;2022-09-20T09:36:27;5.47;;;1.83;;
21979;SDS011;11154;48.558;9.234;2022-09-20T09:38:30;5.05;;;1.60;;
21979;SDS011;11154;48.558;9.234;2022-09-20T09:40:33;6.25;;;1.92;;
21979;SDS011;11154;48.558;9.234;2022-09-20T09:42:35;7.47;;;1.77;;
21979;SDS011;11154;48.558;9.234;2022-09-20T09:44:36;4.97;;;1.63;;
21979;SDS011;11154;48.558;9.234;2022-09-20T09:46:38;5.18;;;1.50;;
21979;SDS011;11154;48.558;9.234;2022-09-20T09:48:40;4.80;;;1.48;;
21979;SDS011;11154;48.558;9.234;2022-09-20T09:50:43;4.10;;;1.10;;
21979;SDS011;11154;48.558;9.234;2022-09-20T09:52:54;5.38;;;1.73;;
21979;SDS011;11154;48.558;9.234;2022-09-20T09:54:58;4.40;;;1.60;;
21979;SDS011;11154;48.558;9.234;2022-09-20T09:57:09;6.18;;;1.60;;
21979;SDS011;11154;48.558;9.234;2022-09-20T09:59:29;7.15;;;1.70;;
21979;SDS011;11154;48.558;9.234;2022-09-20T10:01:43;4.82;;;1.80;;
21979;SDS011;11154;48.558;9.234;2022-09-20T10:03:52;6.97;;;1.92;;
21979;SDS011;11154;48.558;9.234;2022-09-20T10:06:12;5.47;;;1.95;;
21979;SDS011;11154;48.558;9.234;2022-09-20T10:08:22;4.25;;;1.48;;
21979;SDS011;11154;48.558;9.234;2022-09-20T10:10:32;4.18;;;1.85;;
21979;SDS011;11154;48.558;9.234;2022-09-20T10:12:47;6.95;;;2.13;;
21979;SDS011;11154;48.558;9.234;2022-09-20T10:15:01;4.13;;;1.50;;
21979;SDS011;11154;48.558;9.234;2022-09-20T10:17:18;4.63;;;1.20;;
21979;SDS011;11154;48.558;9.234;2022-09-20T10:19:38;4.45;;;1.30;;
21979;SDS011;11154;48.558;9.234;2022-09-20T10:21:52;7.22;;;1.60;;
21979;SDS011;11154;48.558;9.234;2022-09-20T10:24:05;4.60;;;1.25;;
21979;SDS011;11154;48.558;9.234;2022-09-20T10:26:20;6.38;;;2.22;;
21979;SDS011;11154;48.558;9.234;2022-09-20T10:28:35;5.00;;;1.42;;
21979;SDS011;11154;48.558;9.234;2022-09-20T10:30:51;5.18;;;1.08;;
21979;SDS011;11154;48.558;9.234;2022-09-20T10:33:02;5.05;;;1.10;;
21979;SDS011;11154;48.558;9.234;2022-09-20T10:35:17;5.45;;;1.40;;
21979;SDS011;11154;48.558;9.234;2022-09-20T10:37:26;2.75;;;1.70;;
21979;SDS011;11154;48.558;9.234;2022-09-20T10:39:37;4.30;;;1.20;;
21979;SDS011;11154;48.558;9.234;2022-09-20T10:41:43;6.07;;;1.30;;
21979;SDS011;11154;48.558;9.234;2022-09-20T10:44:09;3.05;;;1.20;;
21979;SDS011;11154;48.558;9.234;2022-09-20T10:46:32;3.47;;;1.33;;
21979;SDS011;11154;48.558;9.234;2022-09-20T10:48:44;3.53;;;1.13;;
21979;SDS011;11154;48.558;9.234;2022-09-20T10:50:50;4.43;;;0.98;;
21979;SDS011;11154;48.558;9.234;2022-09-20T10:53:03;9.93;;;4.20;;
21979;SDS011;11154;48.558;9.234;2022-09-20T10:55:19;3.50;;;1.20;;
21979;SDS011;11154;48.558;9.234;2022-09-20T10:57:40;3.83;;;1.17;;
21979;SDS011;11154;48.558;9.234;2022-09-20T10:59:57;4.70;;;1.27;;
21979;SDS011;11154;48.558;9.234;2022-09-20T11:04:50;3.22;;;1.45;;
21979;SDS011;11154;48.558;9.234;2022-09-20T11:07:16;2.60;;;1.00;;
21979;SDS011;11154;48.558;9.234;2022-09-20T11:09:26;7.22;;;1.38;;
21979;SDS011;11154;48.558;9.234;2022-09-20T11:11:33;2.80;;;1.45;;
21979;SDS011;11154;48.558;9.234;2022-09-20T11:13:39;4.55;;;1.48;;
21979;SDS011;11154;48.558;9.234;2022-09-20T11:15:48;3.78;;;1.20;;
21979;SDS011;11154;48.558;9.234;2022-09-20T11:17:57;5.28;;;1.75;;
21979;SDS011;11154;48.558;9.234;2022-09-20T11:20:05;3.00;;;1.25;;
21979;SDS011;11154;48.558;9.234;2022-09-20T11:22:17;3.97;;;1.40;;
21979;SDS011;11154;48.558;9.234;2022-09-20T11:24:26;6.82;;;1.70;;
21979;SDS011;11154;48.558;9.234;2022-09-20T11:26:33;5.45;;;1.55;;
21979;SDS011;11154;48.558;9.234;2022-09-20T11:28:41;3.15;;;1.05;;
21979;SDS011;11154;48.558;9.234;2022-09-20T11:30:49;2.50;;;1.10;;
21979;SDS011;11154;48.558;9.234;2022-09-20T11:32:55;2.17;;;1.27;;
21979;SDS011;11154;48.558;9.234;2022-09-20T11:35:16;2.45;;;1.10;;
21979;SDS011;11154;48.558;9.234;2022-09-20T11:37:26;5.43;;;1.30;;
21979;SDS011;11154;48.558;9.234;2022-09-20T11:39:35;3.38;;;1.25;;
21979;SDS011;11154;48.558;9.234;2022-09-20T11:41:41;3.58;;;1.20;;
21979;SDS011;11154;48.558;9.234;2022-09-20T11:43:43;4.28;;;1.20;;
21979;SDS011;11154;48.558;9.234;2022-09-20T11:45:47;4.25;;;1.40;;
21979;SDS011;11154;48.558;9.234;2022-09-20T11:47:55;2.42;;;1.35;;
21979;SDS011;11154;48.558;9.234;2022-09-20T11:50:08;4.25;;;1.35;;
21979;SDS011;11154;48.558;9.234;2022-09-20T11:52:41;5.75;;;1.38;;
21979;SDS011;11154;48.558;9.234;2022-09-20T11:57:29;6.13;;;1.63;;
21979;SDS011;11154;48.558;9.234;2022-09-20T11:59:32;3.30;;;1.17;;
21979;SDS011;11154;48.558;9.234;2022-09-20T12:01:37;5.35;;;1.38;;
21979;SDS011;11154;48.558;9.234;2022-09-20T12:03:43;5.22;;;1.65;;
21979;SDS011;11154;48.558;9.234;2022-09-20T12:05:55;6.22;;;1.33;;
21979;SDS011;11154;48.558;9.234;2022-09-20T12:07:59;5.65;;;1.33;;
21979;SDS011;11154;48.558;9.234;2022-09-20T12:10:03;6.05;;;1.30;;
21979;SDS011;11154;48.558;9.234;2022-09-20T12:14:32;4.00;;;1.30;;
21979;SDS011;11154;48.558;9.234;2022-09-20T12:16:35;3.05;;;1.08;;
21979;SDS011;11154;48.558;9.234;2022-09-20T12:18:59;3.92;;;1.35;;
21979;SDS011;11154;48.558;9.234;2022-09-20T12:21:04;3.95;;;1.27;;
21979;SDS011;11154;48.558;9.234;2022-09-20T12:25:58;4.23;;;1.40;;
21979;SDS011;11154;48.558;9.234;2022-09-20T12:28:03;4.25;;;1.58;;
21979;SDS011;11154;48.558;9.234;2022-09-20T12:30:05;4.63;;;1.50;;
21979;SDS011;11154;48.558;9.234;2022-09-20T12:34:49;2.42;;;0.90;;
21979;SDS011;11154;48.558;9.234;2022-09-20T12:39:20;3.72;;;1.23;;
21979;SDS011;11154;48.558;9.234;2022-09-20T12:41:24;4.25;;;1.40;;
21979;SDS011;11154;48.558;9.234;2022-09-20T12:43:29;3.75;;;1.17;;
21979;SDS011;11154;48.558;9.234;2022-09-20T12:45:33;5.68;;;1.23;;
21979;SDS011;11154;48.558;9.234;2022-09-20T12:47:36;3.75;;;1.10;;
21979;SDS011;11154;48.558;9.234;2022-09-20T12:49:39;4.25;;;1.40;;
21979;SDS011;11154;48.558;9.234;2022-09-20T12:52:00;4.35;;;1.40;;
21979;SDS011;11154;48.558;9.234;2022-09-20T12:54:19;6.80;;;1.52;;
21979;SDS011;11154;48.558;9.234;2022-09-20T12:56:22;3.55;;;1.00;;
21979;SDS011;11154;48.558;9.234;2022-09-20T12:58:30;4.68;;;1.10;;
21979;SDS011;11154;48.558;9.234;2022-09-20T13:02:57;4.43;;;1.35;;
21979;SDS011;11154;48.558;9.234;2022-09-20T13:05:00;4.18;;;1.20;;
21979;SDS011;11154;48.558;9.234;2022-09-20T13:09:37;2.97;;;1.00;;
21979;SDS011;11154;48.558;9.234;2022-09-20T13:11:40;3.85;;;1.30;;
21979;SDS011;11154;48.558;9.234;2022-09-20T13:13:46;2.20;;;1.15;;
21979;SDS011;11154;48.558;9.234;2022-09-20T13:15:50;5.05;;;1.73;;
21979;SDS011;11154;48.558;9.234;2022-09-20T13:17:54;2.50;;;0.93;;
21979;SDS011;11154;48.558;9.234;2022-09-20T13:19:59;2.65;;;1.35;;
21979;SDS011;11154;48.558;9.234;2022-09-20T13:22:03;3.15;;;1.40;;
21979;SDS011;11154;48.558;9.234;2022-09-20T13:24:09;2.08;;;1.00;;
21979;SDS011;11154;48.558;9.234;2022-09-20T13:26:16;5.53;;;1.08;;
21979;SDS011;11154;48.558;9.234;2022-09-20T13:28:28;3.70;;;1.30;;
21979;SDS011;11154;48.558;9.234;2022-09-20T13:30:38;2.95;;;1.30;;
21979;SDS011;11154;48.558;9.234;2022-09-20T13:32:40;6.50;;;1.50;;
21979;SDS011;11154;48.558;9.234;2022-09-20T13:34:42;2.60;;;1.00;;
21979;SDS011;11154;48.558;9.234;2022-09-20T13:36:45;2.40;;;1.10;;
21979;SDS011;11154;48.558;9.234;2022-09-20T13:38:48;4.53;;;1.42;;
21979;SDS011;11154;48.558;9.234;2022-09-20T13:40:50;5.18;;;1.15;;
21979;SDS011;11154;48.558;9.234;2022-09-20T13:42:54;5.72;;;1.63;;
21979;SDS011;11154;48.558;9.234;2022-09-20T13:44:58;5.82;;;1.33;;
21979;SDS011;11154;48.558;9.234;2022-09-20T13:47:18;3.42;;;1.08;;
21979;SDS011;11154;48.558;9.234;2022-09-20T13:49:22;3.40;;;1.13;;
21979;SDS011;11154;48.558;9.234;2022-09-20T13:51:25;3.83;;;1.17;;
21979;SDS011;11154;48.558;9.234;2022-09-20T13:53:28;3.40;;;1.00;;
21979;SDS011;11154;48.558;9.234;2022-09-20T13:55:33;4.55;;;1.35;;
21979;SDS011;11154;48.558;9.234;2022-09-20T13:57:37;3.97;;;1.42;;
21979;SDS011;11154;48.558;9.234;2022-09-20T13:59:41;3.03;;;1.48;;
21979;SDS011;11154;48.558;9.234;2022-09-20T14:01:48;2.45;;;1.40;;